Bentonville, AR

11:01 PM CDT on July 25, 2016 (GMT -0500)
Blueberry Heights | | Change Station

Elev 1306 ft 36.38 °N, 94.18 °W | Updated 147 days ago

Mostly Cloudy
Mostly Cloudy
76 °F
Feels Like 76 °F
N
3
Wind Variable Wind from East
Gusts mph

Today
High -- | Low -- °F
--% Chance of Precip.
Yesterday
High -- | Low -- °F
Precip. -- in
Pressure 30.04 in
Visibility 10.0 miles
Clouds Clear
Dew Point 71 °F
Humidity 87%
Rainfall in
Snow Depth Not available.
6:18 AM 8:27 PM
Waning Gibbous, 59% visible
METAR KVBT 260355Z AUTO 09005KT 10SM CLR 25/21 A3004 RMK AO1
Pressure 30.04 in
Visibility 10.0 miles
Clouds Clear
Dew Point 71 °F
Humidity 87%
Rainfall in
Snow Depth Not available.
6:18 AM 8:27 PM
Waning Gibbous, 59% visible
METAR KVBT 260355Z AUTO 09005KT 10SM CLR 25/21 A3004 RMK AO1

10-Day Weather Forecast

Almanac

Astronomy

Jul. 25, 2016 Rise Set
Actual Time
Civil Twilight
Nautical Twilight
Astronomical Twilight
Moon
Length of Visible Light
Length of Day
Tomorrow will be .
, % of the Moon is Illuminated

Today's Extremes

State Highs State Lows

Community

WunderPhotos

Upload Photos

1,927,530 photos uploaded!

WunderBlog® & News

Nearby

Air Quality

  Air Quality AQ Index Pollutant
Not available.

Snow Depth

Station Depth Elevation

Earthquake Activity

City Distance Mag. Time & Date
Minimum magnitude displayed is 2.5.

Coastal Water Temperatures

Place Temperature

Stations

Nearby Weather Stations

Station Location Temp. Windchill Dew Point Humidity Wind Precip. Elev Updated Type
                   

Watches & Warnings

There are currently no watches in effect.